sensor_id;sensor_type;location;lat;lon;timestamp;P1;durP1;ratioP1;P2;durP2;ratioP2
9763;SDS011;4921;43.214;27.936;2023-04-24T00:02:26;41.63;;;7.07;;
9763;SDS011;4921;43.214;27.936;2023-04-24T00:04:53;21.90;;;6.30;;
9763;SDS011;4921;43.214;27.936;2023-04-24T00:07:20;20.07;;;6.40;;
9763;SDS011;4921;43.214;27.936;2023-04-24T00:09:47;14.53;;;6.87;;
9763;SDS011;4921;43.214;27.936;2023-04-24T00:12:14;16.60;;;6.60;;
9763;SDS011;4921;43.214;27.936;2023-04-24T00:14:41;18.17;;;6.33;;
9763;SDS011;4921;43.214;27.936;2023-04-24T00:17:08;19.40;;;6.50;;
9763;SDS011;4921;43.214;27.936;2023-04-24T00:19:36;14.37;;;6.10;;
9763;SDS011;4921;43.214;27.936;2023-04-24T00:22:03;15.03;;;6.30;;
9763;SDS011;4921;43.214;27.936;2023-04-24T00:24:30;11.80;;;6.23;;
9763;SDS011;4921;43.214;27.936;2023-04-24T00:26:57;9.33;;;5.73;;
9763;SDS011;4921;43.214;27.936;2023-04-24T00:29:26;14.83;;;5.93;;
9763;SDS011;4921;43.214;27.936;2023-04-24T00:31:53;10.13;;;5.77;;
9763;SDS011;4921;43.214;27.936;2023-04-24T00:34:20;8.30;;;5.37;;
9763;SDS011;4921;43.214;27.936;2023-04-24T00:36:49;8.73;;;5.77;;
9763;SDS011;4921;43.214;27.936;2023-04-24T00:39:17;9.77;;;5.87;;
9763;SDS011;4921;43.214;27.936;2023-04-24T00:41:44;11.43;;;5.70;;
9763;SDS011;4921;43.214;27.936;2023-04-24T00:44:13;11.30;;;5.70;;
9763;SDS011;4921;43.214;27.936;2023-04-24T00:46:40;11.40;;;5.20;;
9763;SDS011;4921;43.214;27.936;2023-04-24T00:49:07;9.73;;;5.33;;
9763;SDS011;4921;43.214;27.936;2023-04-24T00:51:34;12.77;;;5.33;;
9763;SDS011;4921;43.214;27.936;2023-04-24T00:54:03;8.83;;;5.10;;
9763;SDS011;4921;43.214;27.936;2023-04-24T00:56:30;8.20;;;5.13;;
9763;SDS011;4921;43.214;27.936;2023-04-24T00:58:57;14.70;;;5.47;;
9763;SDS011;4921;43.214;27.936;2023-04-24T01:01:25;9.57;;;4.80;;
9763;SDS011;4921;43.214;27.936;2023-04-24T01:03:52;12.00;;;5.40;;
9763;SDS011;4921;43.214;27.936;2023-04-24T01:06:20;8.83;;;5.97;;
9763;SDS011;4921;43.214;27.936;2023-04-24T01:08:47;8.83;;;5.13;;
9763;SDS011;4921;43.214;27.936;2023-04-24T01:11:16;11.23;;;5.10;;
9763;SDS011;4921;43.214;27.936;2023-04-24T01:13:44;10.87;;;5.13;;
9763;SDS011;4921;43.214;27.936;2023-04-24T01:16:12;13.93;;;4.87;;
9763;SDS011;4921;43.214;27.936;2023-04-24T01:18:39;9.07;;;4.93;;
9763;SDS011;4921;43.214;27.936;2023-04-24T01:21:07;10.17;;;5.73;;
9763;SDS011;4921;43.214;27.936;2023-04-24T01:23:36;12.97;;;5.20;;
9763;SDS011;4921;43.214;27.936;2023-04-24T01:26:03;12.57;;;5.20;;
9763;SDS011;4921;43.214;27.936;2023-04-24T01:28:30;10.03;;;5.13;;
9763;SDS011;4921;43.214;27.936;2023-04-24T01:30:57;14.47;;;5.30;;
9763;SDS011;4921;43.214;27.936;2023-04-24T01:33:24;10.73;;;4.47;;
9763;SDS011;4921;43.214;27.936;2023-04-24T01:35:52;9.97;;;4.93;;
9763;SDS011;4921;43.214;27.936;2023-04-24T01:38:20;6.07;;;4.87;;
9763;SDS011;4921;43.214;27.936;2023-04-24T01:40:48;10.50;;;5.63;;
9763;SDS011;4921;43.214;27.936;2023-04-24T01:43:16;9.23;;;5.37;;
9763;SDS011;4921;43.214;27.936;2023-04-24T01:45:44;10.53;;;4.90;;
9763;SDS011;4921;43.214;27.936;2023-04-24T01:48:11;7.10;;;4.70;;
9763;SDS011;4921;43.214;27.936;2023-04-24T01:50:38;14.17;;;5.43;;
9763;SDS011;4921;43.214;27.936;2023-04-24T01:53:05;7.00;;;5.30;;
9763;SDS011;4921;43.214;27.936;2023-04-24T01:55:32;9.27;;;5.07;;
9763;SDS011;4921;43.214;27.936;2023-04-24T01:58:01;7.43;;;5.23;;
9763;SDS011;4921;43.214;27.936;2023-04-24T02:00:28;6.57;;;5.37;;
9763;SDS011;4921;43.214;27.936;2023-04-24T02:02:55;12.13;;;5.13;;
9763;SDS011;4921;43.214;27.936;2023-04-24T02:05:22;12.73;;;5.13;;
9763;SDS011;4921;43.214;27.936;2023-04-24T02:07:49;6.53;;;5.10;;
9763;SDS011;4921;43.214;27.936;2023-04-24T02:10:16;10.07;;;5.40;;
9763;SDS011;4921;43.214;27.936;2023-04-24T02:12:43;8.20;;;4.87;;
9763;SDS011;4921;43.214;27.936;2023-04-24T02:15:11;13.13;;;5.80;;
9763;SDS011;4921;43.214;27.936;2023-04-24T02:17:38;9.17;;;5.27;;
9763;SDS011;4921;43.214;27.936;2023-04-24T02:20:06;8.43;;;5.57;;
9763;SDS011;4921;43.214;27.936;2023-04-24T02:22:35;7.53;;;4.20;;
9763;SDS011;4921;43.214;27.936;2023-04-24T02:25:02;14.37;;;4.73;;
9763;SDS011;4921;43.214;27.936;2023-04-24T02:27:29;4.97;;;4.20;;
9763;SDS011;4921;43.214;27.936;2023-04-24T02:29:56;12.17;;;4.53;;
9763;SDS011;4921;43.214;27.936;2023-04-24T02:32:24;8.00;;;5.43;;
9763;SDS011;4921;43.214;27.936;2023-04-24T02:34:51;9.80;;;4.93;;
9763;SDS011;4921;43.214;27.936;2023-04-24T02:37:18;9.50;;;5.00;;
9763;SDS011;4921;43.214;27.936;2023-04-24T02:39:45;8.03;;;4.57;;
9763;SDS011;4921;43.214;27.936;2023-04-24T02:42:12;7.73;;;4.70;;
9763;SDS011;4921;43.214;27.936;2023-04-24T02:44:39;6.20;;;4.67;;
9763;SDS011;4921;43.214;27.936;2023-04-24T02:47:06;9.57;;;4.57;;
9763;SDS011;4921;43.214;27.936;2023-04-24T02:49:35;7.30;;;5.30;;
9763;SDS011;4921;43.214;27.936;2023-04-24T02:52:02;10.80;;;5.10;;
9763;SDS011;4921;43.214;27.936;2023-04-24T02:54:29;9.07;;;4.40;;
9763;SDS011;4921;43.214;27.936;2023-04-24T02:56:56;10.80;;;4.90;;
9763;SDS011;4921;43.214;27.936;2023-04-24T02:59:23;8.87;;;5.10;;
9763;SDS011;4921;43.214;27.936;2023-04-24T03:01:50;10.33;;;4.77;;
9763;SDS011;4921;43.214;27.936;2023-04-24T03:04:17;11.03;;;5.20;;
9763;SDS011;4921;43.214;27.936;2023-04-24T03:06:46;11.10;;;4.97;;
9763;SDS011;4921;43.214;27.936;2023-04-24T03:09:13;5.53;;;4.70;;
9763;SDS011;4921;43.214;27.936;2023-04-24T03:11:40;8.77;;;5.23;;
9763;SDS011;4921;43.214;27.936;2023-04-24T03:14:07;5.70;;;4.50;;
9763;SDS011;4921;43.214;27.936;2023-04-24T03:16:34;14.10;;;5.47;;
9763;SDS011;4921;43.214;27.936;2023-04-24T03:19:01;13.70;;;5.00;;
9763;SDS011;4921;43.214;27.936;2023-04-24T03:21:28;14.83;;;5.13;;
9763;SDS011;4921;43.214;27.936;2023-04-24T03:23:57;10.70;;;5.03;;
9763;SDS011;4921;43.214;27.936;2023-04-24T03:26:24;9.80;;;5.33;;
9763;SDS011;4921;43.214;27.936;2023-04-24T03:28:51;10.23;;;4.87;;
9763;SDS011;4921;43.214;27.936;2023-04-24T03:31:18;13.67;;;6.07;;
9763;SDS011;4921;43.214;27.936;2023-04-24T03:33:46;15.00;;;5.40;;
9763;SDS011;4921;43.214;27.936;2023-04-24T03:36:14;10.77;;;5.17;;
9763;SDS011;4921;43.214;27.936;2023-04-24T03:38:41;17.17;;;5.50;;
9763;SDS011;4921;43.214;27.936;2023-04-24T03:41:09;9.17;;;5.30;;
9763;SDS011;4921;43.214;27.936;2023-04-24T03:43:36;7.27;;;4.90;;
9763;SDS011;4921;43.214;27.936;2023-04-24T03:46:04;11.03;;;5.40;;
9763;SDS011;4921;43.214;27.936;2023-04-24T03:48:32;11.07;;;5.37;;
9763;SDS011;4921;43.214;27.936;2023-04-24T03:50:59;11.67;;;5.90;;
9763;SDS011;4921;43.214;27.936;2023-04-24T03:53:26;6.27;;;4.90;;
9763;SDS011;4921;43.214;27.936;2023-04-24T03:55:53;10.43;;;5.90;;
9763;SDS011;4921;43.214;27.936;2023-04-24T03:58:21;13.10;;;5.73;;
9763;SDS011;4921;43.214;27.936;2023-04-24T04:00:48;14.10;;;5.60;;
9763;SDS011;4921;43.214;27.936;2023-04-24T04:03:16;13.93;;;5.17;;
9763;SDS011;4921;43.214;27.936;2023-04-24T04:05:43;6.10;;;5.07;;
9763;SDS011;4921;43.214;27.936;2023-04-24T04:08:10;10.80;;;5.50;;
9763;SDS011;4921;43.214;27.936;2023-04-24T04:10:37;9.67;;;5.50;;
9763;SDS011;4921;43.214;27.936;2023-04-24T04:13:04;10.07;;;6.10;;
9763;SDS011;4921;43.214;27.936;2023-04-24T04:15:33;10.07;;;6.00;;
9763;SDS011;4921;43.214;27.936;2023-04-24T04:18:00;13.63;;;5.23;;
9763;SDS011;4921;43.214;27.936;2023-04-24T04:20:27;11.43;;;5.80;;
9763;SDS011;4921;43.214;27.936;2023-04-24T04:22:54;11.70;;;5.90;;
9763;SDS011;4921;43.214;27.936;2023-04-24T04:25:21;17.83;;;6.40;;
9763;SDS011;4921;43.214;27.936;2023-04-24T04:27:48;9.13;;;4.80;;
9763;SDS011;4921;43.214;27.936;2023-04-24T04:30:16;13.17;;;5.80;;
9763;SDS011;4921;43.214;27.936;2023-04-24T04:32:44;13.93;;;5.80;;
9763;SDS011;4921;43.214;27.936;2023-04-24T04:35:11;12.97;;;5.00;;
9763;SDS011;4921;43.214;27.936;2023-04-24T04:37:38;10.83;;;5.00;;
9763;SDS011;4921;43.214;27.936;2023-04-24T04:40:06;12.13;;;5.33;;
9763;SDS011;4921;43.214;27.936;2023-04-24T04:42:37;9.10;;;5.20;;
9763;SDS011;4921;43.214;27.936;2023-04-24T04:45:06;9.50;;;5.27;;
9763;SDS011;4921;43.214;27.936;2023-04-24T04:47:34;8.47;;;4.73;;
9763;SDS011;4921;43.214;27.936;2023-04-24T04:50:03;9.57;;;4.43;;
9763;SDS011;4921;43.214;27.936;2023-04-24T04:52:31;12.27;;;4.83;;
9763;SDS011;4921;43.214;27.936;2023-04-24T04:54:58;8.57;;;5.27;;
9763;SDS011;4921;43.214;27.936;2023-04-24T04:57:25;7.87;;;4.60;;
9763;SDS011;4921;43.214;27.936;2023-04-24T04:59:52;10.60;;;4.50;;
9763;SDS011;4921;43.214;27.936;2023-04-24T05:02:20;8.80;;;4.27;;
9763;SDS011;4921;43.214;27.936;2023-04-24T05:04:47;14.83;;;4.63;;
9763;SDS011;4921;43.214;27.936;2023-04-24T05:07:15;9.07;;;4.63;;
9763;SDS011;4921;43.214;27.936;2023-04-24T05:09:43;8.93;;;4.63;;
9763;SDS011;4921;43.214;27.936;2023-04-24T05:12:10;14.43;;;4.87;;
9763;SDS011;4921;43.214;27.936;2023-04-24T05:14:36;9.97;;;4.13;;
9763;SDS011;4921;43.214;27.936;2023-04-24T05:17:06;8.43;;;4.10;;
9763;SDS011;4921;43.214;27.936;2023-04-24T05:19:33;8.23;;;4.03;;
9763;SDS011;4921;43.214;27.936;2023-04-24T05:22:02;6.80;;;4.03;;
9763;SDS011;4921;43.214;27.936;2023-04-24T05:24:33;9.57;;;4.47;;
9763;SDS011;4921;43.214;27.936;2023-04-24T05:27:00;7.90;;;4.27;;
9763;SDS011;4921;43.214;27.936;2023-04-24T05:29:27;7.90;;;3.73;;
9763;SDS011;4921;43.214;27.936;2023-04-24T05:31:55;7.57;;;4.30;;
9763;SDS011;4921;43.214;27.936;2023-04-24T05:34:22;7.37;;;3.87;;
9763;SDS011;4921;43.214;27.936;2023-04-24T05:36:50;9.57;;;4.13;;
9763;SDS011;4921;43.214;27.936;2023-04-24T05:39:17;8.70;;;3.70;;
9763;SDS011;4921;43.214;27.936;2023-04-24T05:41:46;6.30;;;4.27;;
9763;SDS011;4921;43.214;27.936;2023-04-24T05:44:13;7.27;;;3.93;;
9763;SDS011;4921;43.214;27.936;2023-04-24T05:46:40;7.07;;;3.90;;
9763;SDS011;4921;43.214;27.936;2023-04-24T05:49:07;14.47;;;4.47;;
9763;SDS011;4921;43.214;27.936;2023-04-24T05:51:34;11.93;;;4.30;;
9763;SDS011;4921;43.214;27.936;2023-04-24T05:54:00;12.43;;;4.33;;
9763;SDS011;4921;43.214;27.936;2023-04-24T05:56:28;11.10;;;3.87;;
9763;SDS011;4921;43.214;27.936;2023-04-24T05:58:57;9.80;;;4.03;;
9763;SDS011;4921;43.214;27.936;2023-04-24T06:01:24;11.93;;;4.27;;
9763;SDS011;4921;43.214;27.936;2023-04-24T06:03:52;9.63;;;4.00;;
9763;SDS011;4921;43.214;27.936;2023-04-24T06:06:19;10.10;;;3.97;;
9763;SDS011;4921;43.214;27.936;2023-04-24T06:08:46;11.80;;;3.67;;
9763;SDS011;4921;43.214;27.936;2023-04-24T06:11:12;6.77;;;4.10;;
9763;SDS011;4921;43.214;27.936;2023-04-24T06:13:39;9.13;;;4.43;;
9763;SDS011;4921;43.214;27.936;2023-04-24T06:16:08;12.13;;;4.43;;
9763;SDS011;4921;43.214;27.936;2023-04-24T06:18:35;9.43;;;3.57;;
9763;SDS011;4921;43.214;27.936;2023-04-24T06:21:02;5.80;;;3.50;;
9763;SDS011;4921;43.214;27.936;2023-04-24T06:23:29;8.87;;;3.60;;
9763;SDS011;4921;43.214;27.936;2023-04-24T06:25:57;6.43;;;3.73;;
9763;SDS011;4921;43.214;27.936;2023-04-24T06:28:24;8.97;;;3.67;;
9763;SDS011;4921;43.214;27.936;2023-04-24T06:30:52;5.17;;;3.90;;
9763;SDS011;4921;43.214;27.936;2023-04-24T06:33:21;13.53;;;3.97;;
9763;SDS011;4921;43.214;27.936;2023-04-24T06:35:48;9.67;;;3.77;;
9763;SDS011;4921;43.214;27.936;2023-04-24T06:38:15;7.97;;;4.00;;
9763;SDS011;4921;43.214;27.936;2023-04-24T06:40:42;9.33;;;3.97;;
9763;SDS011;4921;43.214;27.936;2023-04-24T06:43:09;8.37;;;4.20;;
9763;SDS011;4921;43.214;27.936;2023-04-24T06:45:36;6.67;;;3.70;;
9763;SDS011;4921;43.214;27.936;2023-04-24T06:48:04;6.90;;;3.53;;
9763;SDS011;4921;43.214;27.936;2023-04-24T06:50:32;8.00;;;5.90;;
9763;SDS011;4921;43.214;27.936;2023-04-24T06:52:59;14.33;;;3.93;;
9763;SDS011;4921;43.214;27.936;2023-04-24T06:55:26;10.40;;;3.70;;
9763;SDS011;4921;43.214;27.936;2023-04-24T06:57:53;7.47;;;3.67;;
9763;SDS011;4921;43.214;27.936;2023-04-24T07:00:20;8.87;;;3.63;;
9763;SDS011;4921;43.214;27.936;2023-04-24T07:02:49;6.97;;;3.83;;
9763;SDS011;4921;43.214;27.936;2023-04-24T07:05:16;6.67;;;3.57;;
9763;SDS011;4921;43.214;27.936;2023-04-24T07:07:47;8.97;;;4.30;;
9763;SDS011;4921;43.214;27.936;2023-04-24T07:10:15;7.03;;;4.37;;
9763;SDS011;4921;43.214;27.936;2023-04-24T07:12:43;6.77;;;4.00;;
9763;SDS011;4921;43.214;27.936;2023-04-24T07:15:10;9.80;;;4.10;;
9763;SDS011;4921;43.214;27.936;2023-04-24T07:17:37;5.53;;;4.17;;
9763;SDS011;4921;43.214;27.936;2023-04-24T07:20:08;10.07;;;3.77;;
9763;SDS011;4921;43.214;27.936;2023-04-24T07:22:37;8.20;;;3.90;;
9763;SDS011;4921;43.214;27.936;2023-04-24T07:25:05;8.03;;;4.20;;
9763;SDS011;4921;43.214;27.936;2023-04-24T07:27:33;8.37;;;3.73;;
9763;SDS011;4921;43.214;27.936;2023-04-24T07:30:01;10.07;;;5.77;;
9763;SDS011;4921;43.214;27.936;2023-04-24T07:32:29;7.80;;;4.33;;
9763;SDS011;4921;43.214;27.936;2023-04-24T07:34:56;8.70;;;4.63;;
9763;SDS011;4921;43.214;27.936;2023-04-24T07:37:23;10.73;;;4.43;;
9763;SDS011;4921;43.214;27.936;2023-04-24T07:39:51;8.17;;;4.27;;
9763;SDS011;4921;43.214;27.936;2023-04-24T07:42:19;8.63;;;4.20;;
9763;SDS011;4921;43.214;27.936;2023-04-24T07:44:46;9.17;;;4.03;;
9763;SDS011;4921;43.214;27.936;2023-04-24T07:47:13;7.23;;;3.77;;
9763;SDS011;4921;43.214;27.936;2023-04-24T07:49:41;8.00;;;4.27;;
9763;SDS011;4921;43.214;27.936;2023-04-24T07:52:08;8.93;;;3.80;;
9763;SDS011;4921;43.214;27.936;2023-04-24T07:54:35;9.97;;;3.80;;
9763;SDS011;4921;43.214;27.936;2023-04-24T07:57:03;11.00;;;4.20;;
9763;SDS011;4921;43.214;27.936;2023-04-24T07:59:33;6.43;;;3.80;;
9763;SDS011;4921;43.214;27.936;2023-04-24T08:02:00;8.30;;;4.03;;
9763;SDS011;4921;43.214;27.936;2023-04-24T08:04:27;8.57;;;3.83;;
9763;SDS011;4921;43.214;27.936;2023-04-24T08:06:54;8.10;;;4.00;;
9763;SDS011;4921;43.214;27.936;2023-04-24T08:09:21;8.50;;;3.97;;
9763;SDS011;4921;43.214;27.936;2023-04-24T08:11:48;8.17;;;3.73;;
9763;SDS011;4921;43.214;27.936;2023-04-24T08:14:15;9.63;;;4.27;;
9763;SDS011;4921;43.214;27.936;2023-04-24T08:16:43;7.60;;;3.67;;
9763;SDS011;4921;43.214;27.936;2023-04-24T08:19:11;10.77;;;3.77;;
9763;SDS011;4921;43.214;27.936;2023-04-24T08:21:37;9.83;;;3.97;;
9763;SDS011;4921;43.214;27.936;2023-04-24T08:24:04;7.33;;;3.80;;
9763;SDS011;4921;43.214;27.936;2023-04-24T08:26:33;9.57;;;4.23;;
9763;SDS011;4921;43.214;27.936;2023-04-24T08:29:00;8.23;;;4.00;;
9763;SDS011;4921;43.214;27.936;2023-04-24T08:31:27;5.83;;;3.63;;
9763;SDS011;4921;43.214;27.936;2023-04-24T08:33:55;9.00;;;4.00;;
9763;SDS011;4921;43.214;27.936;2023-04-24T08:36:22;10.97;;;4.10;;
9763;SDS011;4921;43.214;27.936;2023-04-24T08:38:49;6.17;;;4.40;;
9763;SDS011;4921;43.214;27.936;2023-04-24T08:41:16;8.73;;;4.13;;
9763;SDS011;4921;43.214;27.936;2023-04-24T08:43:45;9.53;;;4.20;;
9763;SDS011;4921;43.214;27.936;2023-04-24T08:46:13;11.03;;;4.20;;
9763;SDS011;4921;43.214;27.936;2023-04-24T08:48:42;5.20;;;3.90;;
9763;SDS011;4921;43.214;27.936;2023-04-24T08:51:10;10.03;;;4.47;;
9763;SDS011;4921;43.214;27.936;2023-04-24T08:53:37;7.97;;;4.70;;
9763;SDS011;4921;43.214;27.936;2023-04-24T08:56:05;8.60;;;3.97;;
9763;SDS011;4921;43.214;27.936;2023-04-24T08:58:32;6.17;;;4.30;;
9763;SDS011;4921;43.214;27.936;2023-04-24T09:01:00;8.03;;;4.40;;
9763;SDS011;4921;43.214;27.936;2023-04-24T09:03:27;9.37;;;4.50;;
9763;SDS011;4921;43.214;27.936;2023-04-24T09:05:55;10.90;;;4.40;;
9763;SDS011;4921;43.214;27.936;2023-04-24T09:08:24;9.53;;;3.93;;
9763;SDS011;4921;43.214;27.936;2023-04-24T09:10:51;10.27;;;4.23;;
9763;SDS011;4921;43.214;27.936;2023-04-24T09:13:19;11.03;;;4.23;;
9763;SDS011;4921;43.214;27.936;2023-04-24T09:15:46;9.20;;;4.27;;
9763;SDS011;4921;43.214;27.936;2023-04-24T09:18:13;10.70;;;4.10;;
9763;SDS011;4921;43.214;27.936;2023-04-24T09:20:59;11.70;;;3.93;;
9763;SDS011;4921;43.214;27.936;2023-04-24T09:23:29;9.90;;;4.10;;
9763;SDS011;4921;43.214;27.936;2023-04-24T09:25:58;7.07;;;3.63;;
9763;SDS011;4921;43.214;27.936;2023-04-24T09:28:26;11.27;;;4.47;;
9763;SDS011;4921;43.214;27.936;2023-04-24T09:31:02;6.73;;;4.00;;
9763;SDS011;4921;43.214;27.936;2023-04-24T09:33:30;11.40;;;3.87;;
9763;SDS011;4921;43.214;27.936;2023-04-24T09:35:57;9.27;;;4.20;;
9763;SDS011;4921;43.214;27.936;2023-04-24T09:38:32;10.87;;;3.70;;
9763;SDS011;4921;43.214;27.936;2023-04-24T09:41:00;5.63;;;3.50;;
9763;SDS011;4921;43.214;27.936;2023-04-24T09:43:29;9.97;;;3.97;;
9763;SDS011;4921;43.214;27.936;2023-04-24T09:45:56;7.70;;;4.00;;
9763;SDS011;4921;43.214;27.936;2023-04-24T09:48:30;11.30;;;4.03;;
9763;SDS011;4921;43.214;27.936;2023-04-24T09:50:58;10.53;;;4.23;;
9763;SDS011;4921;43.214;27.936;2023-04-24T09:53:26;7.13;;;3.73;;
9763;SDS011;4921;43.214;27.936;2023-04-24T09:55:55;8.13;;;4.10;;
9763;SDS011;4921;43.214;27.936;2023-04-24T09:58:28;10.30;;;3.90;;
9763;SDS011;4921;43.214;27.936;2023-04-24T10:00:55;9.10;;;3.93;;
9763;SDS011;4921;43.214;27.936;2023-04-24T10:03:23;6.90;;;3.70;;
9763;SDS011;4921;43.214;27.936;2023-04-24T10:05:52;7.50;;;3.67;;
9763;SDS011;4921;43.214;27.936;2023-04-24T10:08:20;9.53;;;4.27;;
9763;SDS011;4921;43.214;27.936;2023-04-24T10:10:48;10.97;;;3.90;;
9763;SDS011;4921;43.214;27.936;2023-04-24T10:13:16;8.50;;;3.90;;
9763;SDS011;4921;43.214;27.936;2023-04-24T10:15:43;14.10;;;4.30;;
9763;SDS011;4921;43.214;27.936;2023-04-24T10:18:11;10.20;;;4.07;;
9763;SDS011;4921;43.214;27.936;2023-04-24T10:20:39;8.00;;;3.50;;
9763;SDS011;4921;43.214;27.936;2023-04-24T10:23:06;11.17;;;3.83;;
9763;SDS011;4921;43.214;27.936;2023-04-24T10:25:34;8.33;;;3.40;;
9763;SDS011;4921;43.214;27.936;2023-04-24T10:28:02;7.97;;;3.80;;
9763;SDS011;4921;43.214;27.936;2023-04-24T10:30:32;8.70;;;4.40;;
9763;SDS011;4921;43.214;27.936;2023-04-24T10:33:01;7.20;;;3.73;;
9763;SDS011;4921;43.214;27.936;2023-04-24T10:35:30;4.97;;;3.47;;
9763;SDS011;4921;43.214;27.936;2023-04-24T10:37:59;7.97;;;3.83;;
9763;SDS011;4921;43.214;27.936;2023-04-24T10:40:30;6.03;;;4.03;;
9763;SDS011;4921;43.214;27.936;2023-04-24T10:42:59;12.50;;;4.53;;
9763;SDS011;4921;43.214;27.936;2023-04-24T10:45:26;8.50;;;3.73;;
9763;SDS011;4921;43.214;27.936;2023-04-24T10:47:55;8.33;;;4.20;;
9763;SDS011;4921;43.214;27.936;2023-04-24T10:50:24;6.43;;;3.97;;
9763;SDS011;4921;43.214;27.936;2023-04-24T10:52:52;8.90;;;4.23;;
9763;SDS011;4921;43.214;27.936;2023-04-24T10:55:44;7.53;;;4.73;;
9763;SDS011;4921;43.214;27.936;2023-04-24T10:58:13;9.17;;;4.40;;
9763;SDS011;4921;43.214;27.936;2023-04-24T11:00:41;11.63;;;4.40;;
9763;SDS011;4921;43.214;27.936;2023-04-24T11:03:23;11.37;;;4.80;;
9763;SDS011;4921;43.214;27.936;2023-04-24T11:05:52;9.93;;;4.73;;
9763;SDS011;4921;43.214;27.936;2023-04-24T11:08:26;10.23;;;4.77;;
9763;SDS011;4921;43.214;27.936;2023-04-24T11:10:57;15.27;;;4.97;;
9763;SDS011;4921;43.214;27.936;2023-04-24T11:13:27;8.00;;;4.10;;
9763;SDS011;4921;43.214;27.936;2023-04-24T11:16:15;7.03;;;3.57;;
9763;SDS011;4921;43.214;27.936;2023-04-24T11:18:51;6.70;;;3.90;;
9763;SDS011;4921;43.214;27.936;2023-04-24T11:21:19;9.43;;;3.93;;
9763;SDS011;4921;43.214;27.936;2023-04-24T11:23:48;5.77;;;3.90;;
9763;SDS011;4921;43.214;27.936;2023-04-24T11:26:21;9.50;;;4.50;;
9763;SDS011;4921;43.214;27.936;2023-04-24T11:28:50;7.20;;;3.63;;
9763;SDS011;4921;43.214;27.936;2023-04-24T11:34:09;6.27;;;4.17;;
9763;SDS011;4921;43.214;27.936;2023-04-24T11:36:37;12.40;;;4.73;;
9763;SDS011;4921;43.214;27.936;2023-04-24T11:39:04;10.03;;;4.40;;
9763;SDS011;4921;43.214;27.936;2023-04-24T11:41:31;7.13;;;4.57;;
9763;SDS011;4921;43.214;27.936;2023-04-24T11:43:59;11.33;;;4.70;;
9763;SDS011;4921;43.214;27.936;2023-04-24T11:46:27;7.20;;;4.17;;
9763;SDS011;4921;43.214;27.936;2023-04-24T11:48:56;8.43;;;4.10;;
9763;SDS011;4921;43.214;27.936;2023-04-24T11:51:26;11.63;;;4.93;;
9763;SDS011;4921;43.214;27.936;2023-04-24T11:53:53;8.37;;;4.50;;
9763;SDS011;4921;43.214;27.936;2023-04-24T11:56:21;9.33;;;4.37;;
9763;SDS011;4921;43.214;27.936;2023-04-24T11:58:48;5.93;;;4.03;;
9763;SDS011;4921;43.214;27.936;2023-04-24T12:01:18;9.17;;;4.60;;
9763;SDS011;4921;43.214;27.936;2023-04-24T12:03:47;10.83;;;4.63;;
9763;SDS011;4921;43.214;27.936;2023-04-24T12:06:16;14.10;;;4.03;;
9763;SDS011;4921;43.214;27.936;2023-04-24T12:08:46;9.30;;;4.70;;
9763;SDS011;4921;43.214;27.936;2023-04-24T12:11:15;6.37;;;4.03;;
9763;SDS011;4921;43.214;27.936;2023-04-24T12:13:44;6.17;;;4.37;;
9763;SDS011;4921;43.214;27.936;2023-04-24T12:16:11;6.03;;;4.33;;
9763;SDS011;4921;43.214;27.936;2023-04-24T12:18:42;5.90;;;4.60;;
9763;SDS011;4921;43.214;27.936;2023-04-24T12:21:17;8.27;;;4.17;;
9763;SDS011;4921;43.214;27.936;2023-04-24T12:23:44;6.00;;;4.10;;
9763;SDS011;4921;43.214;27.936;2023-04-24T12:26:15;10.70;;;4.33;;
9763;SDS011;4921;43.214;27.936;2023-04-24T12:28:45;9.40;;;4.37;;
9763;SDS011;4921;43.214;27.936;2023-04-24T12:31:14;6.10;;;4.00;;
9763;SDS011;4921;43.214;27.936;2023-04-24T12:33:41;9.37;;;4.30;;
9763;SDS011;4921;43.214;27.936;2023-04-24T12:36:09;6.10;;;4.07;;
9763;SDS011;4921;43.214;27.936;2023-04-24T12:38:38;8.07;;;4.23;;
9763;SDS011;4921;43.214;27.936;2023-04-24T12:41:12;8.17;;;4.60;;
9763;SDS011;4921;43.214;27.936;2023-04-24T12:43:50;12.47;;;5.10;;
9763;SDS011;4921;43.214;27.936;2023-04-24T12:46:18;8.40;;;4.53;;
9763;SDS011;4921;43.214;27.936;2023-04-24T12:48:45;7.10;;;5.07;;
9763;SDS011;4921;43.214;27.936;2023-04-24T12:51:12;8.17;;;4.67;;
9763;SDS011;4921;43.214;27.936;2023-04-24T12:53:39;7.37;;;4.20;;
9763;SDS011;4921;43.214;27.936;2023-04-24T12:56:06;7.90;;;4.70;;
9763;SDS011;4921;43.214;27.936;2023-04-24T12:58:34;10.37;;;4.20;;
9763;SDS011;4921;43.214;27.936;2023-04-24T13:01:01;9.33;;;4.50;;
9763;SDS011;4921;43.214;27.936;2023-04-24T13:03:28;8.33;;;4.93;;
9763;SDS011;4921;43.214;27.936;2023-04-24T13:05:55;7.13;;;4.80;;
9763;SDS011;4921;43.214;27.936;2023-04-24T13:08:22;7.50;;;4.87;;
9763;SDS011;4921;43.214;27.936;2023-04-24T13:10:49;12.67;;;4.73;;
9763;SDS011;4921;43.214;27.936;2023-04-24T13:13:17;9.53;;;4.53;;
9763;SDS011;4921;43.214;27.936;2023-04-24T13:15:45;10.07;;;4.67;;
9763;SDS011;4921;43.214;27.936;2023-04-24T13:18:13;9.17;;;5.17;;
9763;SDS011;4921;43.214;27.936;2023-04-24T13:20:40;13.63;;;4.60;;
9763;SDS011;4921;43.214;27.936;2023-04-24T13:23:07;8.40;;;4.20;;
9763;SDS011;4921;43.214;27.936;2023-04-24T13:25:34;10.40;;;5.30;;
9763;SDS011;4921;43.214;27.936;2023-04-24T13:28:04;9.53;;;4.50;;
9763;SDS011;4921;43.214;27.936;2023-04-24T13:30:31;10.30;;;5.03;;
9763;SDS011;4921;43.214;27.936;2023-04-24T13:32:59;9.40;;;4.63;;
9763;SDS011;4921;43.214;27.936;2023-04-24T13:35:26;9.50;;;5.00;;
9763;SDS011;4921;43.214;27.936;2023-04-24T13:37:53;9.43;;;4.73;;
9763;SDS011;4921;43.214;27.936;2023-04-24T13:40:21;13.07;;;4.50;;
9763;SDS011;4921;43.214;27.936;2023-04-24T13:42:48;11.33;;;5.73;;
9763;SDS011;4921;43.214;27.936;2023-04-24T13:45:15;12.00;;;5.27;;
9763;SDS011;4921;43.214;27.936;2023-04-24T13:47:45;8.27;;;4.67;;
9763;SDS011;4921;43.214;27.936;2023-04-24T13:50:14;10.17;;;4.43;;
9763;SDS011;4921;43.214;27.936;2023-04-24T13:52:41;9.80;;;4.87;;
9763;SDS011;4921;43.214;27.936;2023-04-24T13:55:08;8.83;;;4.87;;
9763;SDS011;4921;43.214;27.936;2023-04-24T13:57:35;9.50;;;5.20;;
9763;SDS011;4921;43.214;27.936;2023-04-24T14:00:03;8.67;;;4.13;;
9763;SDS011;4921;43.214;27.936;2023-04-24T14:02:35;6.93;;;4.37;;
9763;SDS011;4921;43.214;27.936;2023-04-24T14:05:02;11.37;;;5.00;;
9763;SDS011;4921;43.214;27.936;2023-04-24T14:07:31;11.40;;;5.00;;
9763;SDS011;4921;43.214;27.936;2023-04-24T14:09:58;9.87;;;4.80;;
9763;SDS011;4921;43.214;27.936;2023-04-24T14:12:25;10.27;;;4.53;;
9763;SDS011;4921;43.214;27.936;2023-04-24T14:14:52;8.43;;;4.80;;
9763;SDS011;4921;43.214;27.936;2023-04-24T14:17:20;10.20;;;4.40;;
9763;SDS011;4921;43.214;27.936;2023-04-24T14:19:47;8.77;;;4.50;;
9763;SDS011;4921;43.214;27.936;2023-04-24T14:22:15;9.40;;;4.77;;
9763;SDS011;4921;43.214;27.936;2023-04-24T14:24:43;7.43;;;4.50;;
9763;SDS011;4921;43.214;27.936;2023-04-24T14:27:10;12.33;;;4.23;;
9763;SDS011;4921;43.214;27.936;2023-04-24T14:29:37;12.13;;;4.53;;
9763;SDS011;4921;43.214;27.936;2023-04-24T14:32:04;11.67;;;4.47;;
9763;SDS011;4921;43.214;27.936;2023-04-24T14:34:31;9.03;;;4.27;;
9763;SDS011;4921;43.214;27.936;2023-04-24T14:36:58;7.63;;;4.47;;
9763;SDS011;4921;43.214;27.936;2023-04-24T14:39:25;10.03;;;4.33;;
9763;SDS011;4921;43.214;27.936;2023-04-24T14:41:54;9.60;;;4.50;;
9763;SDS011;4921;43.214;27.936;2023-04-24T14:44:21;10.93;;;4.67;;
9763;SDS011;4921;43.214;27.936;2023-04-24T14:46:48;7.27;;;4.00;;
9763;SDS011;4921;43.214;27.936;2023-04-24T14:49:15;10.20;;;4.17;;
9763;SDS011;4921;43.214;27.936;2023-04-24T14:51:42;7.47;;;4.00;;
9763;SDS011;4921;43.214;27.936;2023-04-24T14:54:09;11.47;;;4.07;;
9763;SDS011;4921;43.214;27.936;2023-04-24T14:56:36;10.70;;;4.50;;
9763;SDS011;4921;43.214;27.936;2023-04-24T14:59:07;8.00;;;4.10;;
9763;SDS011;4921;43.214;27.936;2023-04-24T15:01:34;7.90;;;4.20;;
9763;SDS011;4921;43.214;27.936;2023-04-24T15:04:01;8.80;;;4.40;;